createdAt,value
2024-02-21T00:00:14.699Z,7.80
2024-02-21T00:02:42.555Z,7.79
2024-02-21T00:05:10.616Z,7.78
2024-02-21T00:07:38.623Z,7.78
2024-02-21T00:10:07.523Z,7.84
2024-02-21T00:12:37.577Z,7.74
2024-02-21T00:15:06.200Z,7.65
2024-02-21T00:17:35.499Z,7.82
2024-02-21T00:20:03.518Z,7.81
2024-02-21T00:22:32.384Z,7.84
2024-02-21T00:25:00.382Z,7.78
2024-02-21T00:27:28.843Z,7.71
2024-02-21T00:30:02.191Z,7.73
2024-02-21T00:32:30.486Z,7.65
2024-02-21T00:35:00.114Z,7.65
2024-02-21T00:37:28.343Z,7.68
2024-02-21T00:39:56.558Z,7.68
2024-02-21T00:42:24.459Z,7.66
2024-02-21T00:44:52.341Z,7.61
2024-02-21T00:47:20.391Z,7.66
2024-02-21T00:49:48.331Z,7.57
2024-02-21T00:52:17.747Z,7.59
2024-02-21T00:54:50.867Z,7.67
2024-02-21T00:57:23.038Z,7.64
2024-02-21T00:59:51.036Z,7.64
2024-02-21T01:02:19.089Z,7.61
2024-02-21T01:04:50.117Z,7.71
2024-02-21T01:07:19.469Z,7.67
2024-02-21T01:09:47.370Z,7.69
2024-02-21T01:12:15.303Z,7.68
2024-02-21T01:14:43.203Z,7.67
2024-02-21T01:17:13.562Z,7.63
2024-02-21T01:19:41.576Z,7.75
2024-02-21T01:22:11.739Z,7.74
2024-02-21T01:24:41.010Z,7.66
2024-02-21T01:27:09.199Z,7.76
2024-02-21T01:29:38.789Z,7.76
2024-02-21T01:32:07.376Z,7.75
2024-02-21T01:34:35.355Z,7.79
2024-02-21T01:37:05.524Z,7.80
2024-02-21T01:39:33.611Z,7.70
2024-02-21T01:42:02.975Z,7.86
2024-02-21T01:44:31.177Z,7.82
2024-02-21T01:46:59.275Z,7.72
2024-02-21T01:49:27.324Z,7.69
2024-02-21T01:51:56.875Z,7.79
2024-02-21T01:54:24.843Z,7.83
2024-02-21T01:56:53.392Z,7.79
2024-02-21T01:59:23.643Z,7.74
2024-02-21T02:01:53.562Z,7.78
2024-02-21T02:04:22.653Z,7.84
2024-02-21T02:06:51.171Z,7.77
2024-02-21T02:09:19.111Z,7.73
2024-02-21T02:11:47.596Z,7.75
2024-02-21T02:14:15.593Z,7.82
2024-02-21T02:16:48.522Z,7.77
2024-02-21T02:19:17.379Z,7.76
2024-02-21T02:21:54.362Z,7.70
2024-02-21T02:24:53.354Z,7.77
2024-02-21T02:27:25.389Z,7.56
2024-02-21T02:29:56.208Z,7.54
2024-02-21T02:32:24.180Z,7.47
2024-02-21T02:34:52.238Z,7.48
2024-02-21T02:37:20.332Z,7.54
2024-02-21T02:39:48.759Z,7.46
2024-02-21T02:42:18.040Z,7.42
2024-02-21T02:44:46.167Z,7.50
2024-02-21T02:47:14.208Z,7.46
2024-02-21T02:49:42.267Z,7.44
2024-02-21T02:52:10.323Z,7.40
2024-02-21T02:54:38.233Z,7.36
2024-02-21T02:57:07.070Z,7.21
2024-02-21T02:59:36.354Z,7.33
2024-02-21T03:02:04.415Z,7.18
2024-02-21T03:04:32.437Z,7.21
2024-02-21T03:07:00.498Z,7.20
2024-02-21T03:09:29.370Z,7.17
2024-02-21T03:12:03.724Z,7.18
2024-02-21T03:14:31.591Z,7.19
2024-02-21T03:17:01.361Z,7.18
2024-02-21T03:19:29.464Z,7.20
2024-02-21T03:21:57.510Z,7.07
2024-02-21T03:24:25.443Z,7.08
2024-02-21T03:26:53.348Z,7.05
2024-02-21T03:29:21.267Z,7.16
2024-02-21T03:31:49.192Z,7.12
2024-02-21T03:34:18.572Z,7.08
2024-02-21T03:36:46.514Z,7.11
2024-02-21T03:39:14.458Z,6.95
2024-02-21T03:41:42.470Z,7.03
2024-02-21T03:44:10.384Z,6.99
2024-02-21T03:46:38.300Z,6.88
2024-02-21T03:49:06.215Z,6.86
2024-02-21T03:51:35.515Z,6.79
2024-02-21T03:54:03.447Z,6.83
2024-02-21T03:56:34.352Z,6.77
2024-02-21T03:59:02.776Z,6.84
2024-02-21T04:01:30.891Z,6.82
2024-02-21T04:03:58.941Z,6.71
2024-02-21T04:06:26.898Z,6.81
2024-02-21T04:08:56.499Z,6.80
2024-02-21T04:11:24.477Z,6.76
2024-02-21T04:13:52.651Z,6.73
2024-02-21T04:16:20.671Z,6.70
2024-02-21T04:18:48.656Z,6.72
2024-02-21T04:21:19.731Z,6.72
2024-02-21T04:23:47.634Z,6.75
2024-02-21T04:26:16.990Z,6.74
2024-02-21T04:28:48.157Z,6.70
2024-02-21T04:31:16.418Z,6.68
2024-02-21T04:33:44.451Z,6.72
2024-02-21T04:36:12.441Z,6.69
2024-02-21T04:38:40.385Z,6.66
2024-02-21T04:41:09.091Z,6.71
2024-02-21T04:43:38.607Z,6.66
2024-02-21T04:46:07.085Z,6.64
2024-02-21T04:48:35.079Z,6.74
2024-02-21T04:51:10.269Z,6.67
2024-02-21T04:53:38.387Z,6.74
2024-02-21T04:56:07.033Z,6.77
2024-02-21T04:58:35.048Z,6.82
2024-02-21T05:01:04.571Z,6.81
2024-02-21T05:03:32.743Z,6.84
2024-02-21T05:06:01.467Z,6.76
2024-02-21T05:08:29.389Z,6.86
2024-02-21T05:10:57.458Z,6.90
2024-02-21T05:13:25.462Z,6.75
2024-02-21T05:15:53.431Z,6.82
2024-02-21T05:18:23.161Z,6.82
2024-02-21T05:20:51.161Z,6.86
2024-02-21T05:23:21.221Z,6.85
2024-02-21T05:25:49.151Z,6.85
2024-02-21T05:28:17.157Z,6.80
2024-02-21T05:30:45.205Z,6.90
2024-02-21T05:33:14.045Z,6.85
2024-02-21T05:35:43.396Z,6.81
2024-02-21T05:38:13.207Z,6.84
2024-02-21T05:40:41.201Z,6.89
2024-02-21T05:43:09.688Z,6.87
2024-02-21T05:45:37.875Z,6.90
2024-02-21T05:48:06.641Z,6.92
2024-02-21T05:50:34.804Z,6.92
2024-02-21T05:53:04.683Z,6.99
2024-02-21T05:55:32.632Z,7.02
2024-02-21T05:58:00.764Z,6.94
2024-02-21T06:00:28.698Z,6.94
2024-02-21T06:02:56.769Z,6.92
2024-02-21T06:05:24.782Z,6.91
2024-02-21T06:07:52.954Z,7.00
2024-02-21T06:10:22.301Z,6.99
2024-02-21T06:12:50.320Z,7.02
2024-02-21T06:15:18.207Z,7.01
2024-02-21T06:17:46.214Z,7.00
2024-02-21T06:20:14.401Z,6.99
2024-02-21T06:22:45.975Z,7.07
2024-02-21T06:25:14.189Z,6.99
2024-02-21T06:27:43.584Z,6.99
2024-02-21T06:30:13.289Z,7.01
2024-02-21T06:32:41.269Z,7.03
2024-02-21T06:35:09.283Z,7.02
2024-02-21T06:37:37.571Z,7.05
2024-02-21T06:40:06.354Z,7.07
2024-02-21T06:42:34.308Z,7.08
2024-02-21T06:45:03.739Z,7.09
2024-02-21T06:47:31.885Z,7.10
2024-02-21T06:49:59.955Z,7.11
2024-02-21T06:52:27.869Z,7.14
2024-02-21T06:54:55.875Z,7.15
2024-02-21T06:57:23.771Z,7.24
2024-02-21T06:59:51.661Z,7.23
2024-02-21T07:02:20.938Z,7.17
2024-02-21T07:04:49.206Z,7.18
2024-02-21T07:07:17.380Z,7.17
2024-02-21T07:09:45.508Z,7.20
2024-02-21T07:12:13.445Z,7.21
2024-02-21T07:14:43.947Z,7.23
2024-02-21T07:17:11.929Z,7.26
2024-02-21T07:19:46.450Z,7.27
2024-02-21T07:22:14.561Z,7.22
2024-02-21T07:24:44.600Z,7.26
2024-02-21T07:27:12.523Z,7.26
2024-02-21T07:29:40.560Z,7.33
2024-02-21T07:32:08.890Z,7.37
2024-02-21T07:34:37.009Z,7.33
2024-02-21T07:37:06.421Z,7.40
2024-02-21T07:39:39.093Z,7.38
2024-02-21T07:42:07.253Z,7.49
2024-02-21T07:44:35.681Z,7.44
2024-02-21T07:47:03.835Z,7.41
2024-02-21T07:49:32.384Z,7.41
2024-02-21T07:52:04.469Z,7.48
2024-02-21T07:54:33.925Z,7.36
2024-02-21T07:57:01.856Z,7.44
2024-02-21T07:59:29.818Z,7.39
2024-02-21T08:01:58.698Z,7.45
2024-02-21T08:04:27.005Z,7.53
2024-02-21T08:06:56.741Z,7.46
2024-02-21T08:09:25.305Z,7.49
2024-02-21T08:11:55.953Z,7.50
2024-02-21T08:14:25.749Z,7.51
2024-02-21T08:16:56.422Z,7.53
2024-02-21T08:19:24.543Z,7.61
2024-02-21T08:21:52.734Z,7.62
2024-02-21T08:24:20.686Z,7.62
2024-02-21T08:26:48.606Z,7.69
2024-02-21T08:29:24.116Z,7.67
2024-02-21T08:31:52.107Z,7.76
2024-02-21T08:34:20.159Z,7.71
2024-02-21T08:36:49.727Z,7.68
2024-02-21T08:39:18.874Z,7.80
2024-02-21T08:41:56.209Z,7.78
2024-02-21T08:44:28.457Z,7.77
2024-02-21T08:46:59.717Z,7.83
2024-02-21T08:49:33.509Z,7.87
2024-02-21T08:52:03.224Z,7.93
2024-02-21T08:54:32.203Z,7.98
2024-02-21T08:57:00.306Z,7.96
2024-02-21T08:59:29.541Z,7.96
2024-02-21T09:02:02.978Z,8.08
2024-02-21T09:04:32.222Z,8.20
2024-02-21T09:07:00.485Z,8.14
2024-02-21T09:09:29.961Z,8.30
2024-02-21T09:11:58.625Z,8.28
2024-02-21T09:14:26.777Z,8.35
2024-02-21T09:16:56.980Z,8.33
2024-02-21T09:19:27.550Z,8.25
2024-02-21T09:21:55.610Z,8.37
2024-02-21T09:24:23.647Z,8.39
2024-02-21T09:26:51.889Z,8.49
2024-02-21T09:29:20.984Z,8.56
2024-02-21T09:31:51.283Z,8.44
2024-02-21T09:34:20.811Z,8.63
2024-02-21T09:36:51.532Z,8.64
2024-02-21T09:39:20.401Z,8.75
2024-02-21T09:41:56.409Z,8.81
2024-02-21T09:44:24.630Z,8.81
2024-02-21T09:46:58.399Z,8.91
2024-02-21T09:49:34.014Z,8.85
2024-02-21T09:52:04.625Z,9.00
2024-02-21T09:54:33.053Z,8.85
2024-02-21T09:57:01.829Z,9.02
2024-02-21T09:59:31.094Z,9.09
2024-02-21T10:02:01.437Z,9.09
2024-02-21T10:04:34.650Z,9.22
2024-02-21T10:07:03.196Z,9.25
2024-02-21T10:09:31.715Z,9.29
2024-02-21T10:12:10.494Z,9.37
2024-02-21T10:14:38.615Z,9.30
2024-02-21T10:17:10.631Z,9.38
2024-02-21T10:19:42.219Z,9.35
2024-02-21T10:22:11.245Z,9.27
2024-02-21T10:24:42.359Z,9.40
2024-02-21T10:27:12.799Z,9.47
2024-02-21T10:29:42.376Z,9.39
2024-02-21T10:32:13.212Z,9.41
2024-02-21T10:34:45.353Z,9.41
2024-02-21T10:37:13.976Z,9.40
2024-02-21T10:39:43.889Z,9.43
2024-02-21T10:42:14.468Z,9.50
2024-02-21T10:44:43.492Z,9.58
2024-02-21T10:47:14.249Z,9.57
2024-02-21T10:49:48.643Z,9.66
2024-02-21T10:52:20.541Z,9.61
2024-02-21T10:54:55.568Z,9.71
2024-02-21T10:57:24.445Z,9.77
2024-02-21T10:59:53.252Z,9.72
2024-02-21T11:02:21.921Z,9.83
2024-02-21T11:04:53.992Z,9.70
2024-02-21T11:07:22.360Z,9.70
2024-02-21T11:09:54.076Z,9.67
2024-02-21T11:12:26.518Z,9.42
2024-02-21T11:14:54.772Z,9.60
2024-02-21T11:17:27.132Z,9.57
2024-02-21T11:19:56.569Z,9.51
2024-02-21T11:22:26.138Z,9.65
2024-02-21T11:24:54.821Z,9.82
2024-02-21T11:27:29.420Z,9.82
2024-02-21T11:29:59.068Z,9.88
2024-02-21T11:32:28.640Z,9.86
2024-02-21T11:35:03.264Z,9.97
2024-02-21T11:37:35.468Z,10.02
2024-02-21T11:40:04.379Z,10.03
2024-02-21T11:42:33.145Z,10.08
2024-02-21T11:45:02.389Z,10.16
2024-02-21T11:47:35.027Z,10.19
2024-02-21T11:50:04.883Z,10.32
2024-02-21T11:52:33.147Z,10.67
2024-02-21T11:55:06.164Z,10.57
2024-02-21T11:57:36.707Z,10.51
2024-02-21T12:00:15.166Z,10.68
2024-02-21T12:02:46.234Z,10.89
2024-02-21T12:05:16.173Z,10.82
2024-02-21T12:07:45.392Z,10.99
2024-02-21T12:10:14.277Z,11.03
2024-02-21T12:12:42.724Z,11.38
2024-02-21T12:15:10.823Z,11.73
2024-02-21T12:17:39.440Z,11.89
2024-02-21T12:20:10.408Z,11.87
2024-02-21T12:22:40.941Z,11.69
2024-02-21T12:25:19.058Z,11.61
2024-02-21T12:27:47.306Z,11.48
2024-02-21T12:30:15.510Z,11.71
2024-02-21T12:32:43.592Z,11.82
2024-02-21T12:35:11.770Z,11.73
2024-02-21T12:37:41.329Z,12.54
2024-02-21T12:40:14.333Z,12.97
2024-02-21T12:42:42.744Z,12.50
2024-02-21T12:45:11.351Z,13.05
2024-02-21T12:47:40.238Z,12.80
2024-02-21T12:50:09.057Z,12.47
2024-02-21T12:52:37.542Z,13.66
2024-02-21T12:55:08.000Z,12.76
2024-02-21T12:57:36.085Z,13.07
2024-02-21T13:00:04.702Z,14.97
2024-02-21T13:02:32.862Z,15.14
2024-02-21T13:05:01.602Z,14.46
2024-02-21T13:07:29.672Z,13.10
2024-02-21T13:09:58.981Z,12.85
2024-02-21T13:12:28.873Z,12.35
2024-02-21T13:14:56.852Z,12.18
2024-02-21T13:17:24.898Z,12.04
2024-02-21T13:19:53.106Z,11.73
2024-02-21T13:22:23.455Z,11.55
2024-02-21T13:24:52.914Z,11.63
2024-02-21T13:27:22.232Z,11.57
2024-02-21T13:29:51.563Z,11.57
2024-02-21T13:32:19.562Z,11.34
2024-02-21T13:34:47.831Z,11.26
2024-02-21T13:37:16.070Z,11.14
2024-02-21T13:39:48.111Z,11.17
2024-02-21T13:42:16.099Z,11.11
2024-02-21T13:44:44.077Z,11.03
2024-02-21T13:47:14.323Z,11.08
2024-02-21T13:49:42.588Z,10.88
2024-02-21T13:52:11.220Z,10.92
2024-02-21T13:54:39.168Z,10.87
2024-02-21T13:57:07.240Z,10.70
2024-02-21T13:59:35.536Z,10.69
2024-02-21T14:02:03.591Z,10.58
2024-02-21T14:04:33.096Z,10.70
2024-02-21T14:07:01.741Z,10.76
2024-02-21T14:09:30.609Z,10.77
2024-02-21T14:11:58.658Z,10.87
2024-02-21T14:14:26.677Z,10.93
2024-02-21T14:16:54.716Z,10.99
2024-02-21T14:19:22.810Z,10.83
2024-02-21T14:21:54.525Z,10.82
2024-02-21T14:24:21.508Z,10.91
2024-02-21T14:26:49.738Z,10.89
2024-02-21T14:29:17.753Z,10.94
2024-02-21T14:31:45.845Z,11.06
2024-02-21T14:34:14.057Z,10.95
2024-02-21T14:36:42.388Z,11.04
2024-02-21T14:39:11.922Z,11.15
2024-02-21T14:41:40.733Z,11.14
2024-02-21T14:44:11.136Z,11.01
2024-02-21T14:46:40.115Z,10.95
2024-02-21T14:49:08.289Z,10.96
2024-02-21T14:51:36.282Z,10.97
2024-02-21T14:54:04.594Z,10.98
2024-02-21T14:56:33.893Z,11.01
2024-02-21T14:59:09.145Z,11.00
2024-02-21T15:01:43.638Z,10.97
2024-02-21T15:04:12.080Z,10.93
2024-02-21T15:06:40.641Z,10.88
2024-02-21T15:09:09.508Z,10.88
2024-02-21T15:11:41.568Z,10.86
2024-02-21T15:14:10.321Z,10.84
2024-02-21T15:16:38.843Z,10.84
2024-02-21T15:19:07.997Z,10.92
2024-02-21T15:21:36.554Z,10.84
2024-02-21T15:24:05.738Z,10.82
2024-02-21T15:26:34.022Z,10.85
2024-02-21T15:29:03.730Z,10.77
2024-02-21T15:31:31.846Z,10.78
2024-02-21T15:34:00.373Z,10.78
2024-02-21T15:36:29.581Z,10.74
2024-02-21T15:38:59.620Z,10.70
2024-02-21T15:41:27.650Z,10.61
2024-02-21T15:43:57.764Z,10.52
2024-02-21T15:46:27.478Z,10.52
2024-02-21T15:48:55.928Z,10.53
2024-02-21T15:51:25.237Z,10.52
2024-02-21T15:53:53.526Z,10.39
2024-02-21T15:56:21.607Z,10.47
2024-02-21T15:58:49.658Z,10.47
2024-02-21T16:01:17.780Z,10.49
2024-02-21T16:03:47.305Z,10.44
2024-02-21T16:06:15.666Z,11.05
2024-02-21T16:08:43.642Z,10.71
2024-02-21T16:11:17.328Z,10.70
2024-02-21T16:13:46.957Z,10.48
2024-02-21T16:16:15.357Z,10.32
2024-02-21T16:18:44.004Z,10.26
2024-02-21T16:21:17.697Z,10.45
2024-02-21T16:23:45.780Z,10.15
2024-02-21T16:26:14.060Z,10.19
2024-02-21T16:28:43.558Z,9.84
2024-02-21T16:31:13.432Z,9.77
2024-02-21T16:33:41.562Z,9.78
2024-02-21T16:36:09.873Z,9.81
2024-02-21T16:38:41.007Z,9.68
2024-02-21T16:41:09.680Z,9.64
2024-02-21T16:43:38.160Z,9.59
2024-02-21T16:46:09.068Z,9.63
2024-02-21T16:48:37.023Z,9.45
2024-02-21T16:51:06.924Z,9.67
2024-02-21T16:53:36.351Z,9.37
2024-02-21T16:56:06.510Z,9.57
2024-02-21T16:58:37.773Z,9.50
2024-02-21T17:01:11.640Z,9.65
2024-02-21T17:03:42.847Z,9.49
2024-02-21T17:06:16.453Z,9.39
2024-02-21T17:08:47.183Z,9.50
2024-02-21T17:11:17.369Z,9.44
2024-02-21T17:13:45.791Z,9.55
2024-02-21T17:16:13.928Z,9.48
2024-02-21T17:18:41.985Z,9.46
2024-02-21T17:21:13.972Z,9.21
2024-02-21T17:23:42.176Z,9.11
2024-02-21T17:26:10.418Z,9.03
2024-02-21T17:28:39.858Z,9.02
2024-02-21T17:31:07.897Z,9.03
2024-02-21T17:33:36.040Z,8.78
2024-02-21T17:36:04.769Z,8.65
2024-02-21T17:38:32.849Z,8.65
2024-02-21T17:41:01.040Z,8.62
2024-02-21T17:43:30.780Z,8.79
2024-02-21T17:46:07.981Z,8.75
2024-02-21T17:48:37.089Z,8.73
2024-02-21T17:51:05.293Z,8.73
2024-02-21T17:53:33.517Z,8.68
2024-02-21T17:56:10.639Z,8.37
2024-02-21T17:58:41.885Z,8.39
2024-02-21T18:01:11.356Z,8.48
2024-02-21T18:03:39.427Z,8.32
2024-02-21T18:06:07.735Z,8.21
2024-02-21T18:08:36.158Z,8.26
2024-02-21T18:11:04.640Z,8.27
2024-02-21T18:13:33.212Z,8.16
2024-02-21T18:16:02.206Z,8.15
2024-02-21T18:18:34.837Z,8.22
2024-02-21T18:21:03.110Z,8.07
2024-02-21T18:23:31.167Z,8.25
2024-02-21T18:26:00.636Z,8.05
2024-02-21T18:28:31.664Z,8.12
2024-02-21T18:31:00.903Z,8.04
2024-02-21T18:33:30.045Z,8.11
2024-02-21T18:36:00.040Z,8.01
2024-02-21T18:38:28.117Z,8.22
2024-02-21T18:40:56.466Z,8.33
2024-02-21T18:43:25.135Z,8.27
2024-02-21T18:45:53.269Z,8.14
2024-02-21T18:48:21.532Z,8.17
2024-02-21T18:50:49.868Z,7.92
2024-02-21T18:53:19.602Z,7.92
2024-02-21T18:55:48.159Z,7.93
2024-02-21T18:58:16.780Z,7.99
2024-02-21T19:00:45.377Z,7.98
2024-02-21T19:03:14.049Z,8.07
2024-02-21T19:05:42.266Z,7.93
2024-02-21T19:08:10.564Z,7.84
2024-02-21T19:10:40.663Z,7.98
2024-02-21T19:13:10.396Z,7.88
2024-02-21T19:15:38.696Z,7.90
2024-02-21T19:18:07.860Z,8.19
2024-02-21T19:20:36.741Z,8.07
2024-02-21T19:23:05.143Z,7.88
2024-02-21T19:25:33.201Z,7.82
2024-02-21T19:28:04.338Z,7.93
2024-02-21T19:30:32.351Z,7.92
2024-02-21T19:33:01.006Z,7.96
2024-02-21T19:35:29.410Z,8.05
2024-02-21T19:38:03.665Z,8.07
2024-02-21T19:40:33.120Z,8.02
2024-02-21T19:43:03.681Z,7.92
2024-02-21T19:45:35.849Z,7.98
2024-02-21T19:48:04.294Z,8.14
2024-02-21T19:50:34.185Z,8.03
2024-02-21T19:53:05.248Z,8.17
2024-02-21T19:55:35.111Z,8.27
2024-02-21T19:58:05.991Z,8.09
2024-02-21T20:00:34.400Z,8.17
2024-02-21T20:03:04.750Z,8.16
2024-02-21T20:05:33.787Z,8.12
2024-02-21T20:08:05.678Z,8.19
2024-02-21T20:10:33.842Z,8.12
2024-02-21T20:13:02.745Z,8.04
2024-02-21T20:15:33.120Z,8.03
2024-02-21T20:18:01.541Z,8.16
2024-02-21T20:20:32.435Z,8.25
2024-02-21T20:23:00.587Z,8.15
2024-02-21T20:25:29.782Z,8.15
2024-02-21T20:27:58.019Z,7.99
2024-02-21T20:30:26.117Z,8.25
2024-02-21T20:32:58.289Z,8.03
2024-02-21T20:35:28.118Z,8.14
2024-02-21T20:37:58.254Z,8.24
2024-02-21T20:40:28.702Z,8.08
2024-02-21T20:42:59.676Z,7.90
2024-02-21T20:45:30.088Z,8.11
2024-02-21T20:48:00.351Z,8.08
2024-02-21T20:50:29.333Z,8.04
2024-02-21T20:52:59.670Z,8.11
2024-02-21T20:55:32.835Z,8.04
2024-02-21T20:58:01.779Z,7.94
2024-02-21T21:00:31.123Z,8.10
2024-02-21T21:03:02.049Z,8.04
2024-02-21T21:05:31.458Z,7.90
2024-02-21T21:08:00.041Z,7.94
2024-02-21T21:10:28.913Z,8.10
2024-02-21T21:12:57.662Z,7.94
2024-02-21T21:15:29.521Z,7.85
2024-02-21T21:17:57.985Z,7.94
2024-02-21T21:20:30.201Z,8.13
2024-02-21T21:22:59.254Z,8.09
2024-02-21T21:25:27.366Z,8.10
2024-02-21T21:27:57.899Z,8.09
2024-02-21T21:30:26.133Z,8.27
2024-02-21T21:32:54.161Z,8.24
2024-02-21T21:35:22.263Z,8.07
2024-02-21T21:37:53.613Z,8.03
2024-02-21T21:40:21.622Z,8.12
2024-02-21T21:42:49.659Z,8.06
2024-02-21T21:45:17.700Z,8.13
2024-02-21T21:47:45.782Z,8.24
2024-02-21T21:50:14.008Z,8.21
2024-02-21T21:52:42.582Z,8.11
2024-02-21T21:55:13.034Z,8.13
2024-02-21T21:57:40.997Z,8.26
2024-02-21T22:00:10.941Z,8.15
2024-02-21T22:02:43.501Z,8.13
2024-02-21T22:05:12.663Z,8.21
2024-02-21T22:07:41.217Z,8.32
2024-02-21T22:10:09.938Z,8.20
2024-02-21T22:12:39.565Z,8.27
2024-02-21T22:15:08.923Z,8.23
2024-02-21T22:17:37.441Z,8.38
2024-02-21T22:20:09.587Z,8.24
2024-02-21T22:22:37.631Z,8.30
2024-02-21T22:25:06.445Z,8.41
2024-02-21T22:27:34.827Z,8.40
2024-02-21T22:30:05.534Z,8.30
2024-02-21T22:32:33.649Z,8.43
2024-02-21T22:35:01.778Z,8.37
2024-02-21T22:37:29.969Z,8.37
2024-02-21T22:39:57.985Z,8.42
2024-02-21T22:42:26.055Z,8.38
2024-02-21T22:44:54.033Z,8.46
2024-02-21T22:47:25.150Z,8.46
2024-02-21T22:49:53.162Z,8.53
2024-02-21T22:52:21.154Z,8.46
2024-02-21T22:54:49.287Z,8.47
2024-02-21T22:57:17.392Z,8.49
2024-02-21T22:59:45.406Z,8.50
2024-02-21T23:02:13.497Z,8.58
2024-02-21T23:04:43.661Z,8.46
2024-02-21T23:07:12.328Z,8.50
2024-02-21T23:09:40.338Z,8.37
2024-02-21T23:12:10.326Z,8.41
2024-02-21T23:14:38.422Z,8.36
2024-02-21T23:17:06.842Z,8.45
2024-02-21T23:19:35.201Z,8.62
2024-02-21T23:22:05.035Z,8.46
2024-02-21T23:24:35.568Z,8.65
2024-02-21T23:27:03.918Z,8.53
2024-02-21T23:29:32.010Z,8.60
2024-02-21T23:32:00.625Z,8.50
2024-02-21T23:34:28.818Z,8.35
2024-02-21T23:36:56.815Z,8.37
2024-02-21T23:39:27.481Z,8.31
2024-02-21T23:41:55.431Z,8.37
2024-02-21T23:44:23.437Z,8.43
2024-02-21T23:46:51.752Z,8.40
2024-02-21T23:49:19.811Z,8.49
2024-02-21T23:51:50.469Z,8.55
2024-02-21T23:54:18.596Z,8.59
2024-02-21T23:56:47.981Z,8.41
2024-02-21T23:59:16.026Z,8.53
